McAlester, OK (74501)

5:28 PM CST on February 12, 2016 (GMT -0600)
South McAlester | | Change Station
CLOSE
Current Station
Personal Weather Station
Location: McAlester, OK
Elevation: 751 ft
Nearby Weather Stations

Elev 751 ft 34.92 °N, 95.75 °W | Updated 16 seconds ago

Clear
Clear
53.4 °F
Feels Like 53.4 °F
N
5.8
Wind Variable Wind from NNE

Today
High -- | Low -- °F
--% Chance of Precip.
Yesterday
High -- | Low -- °F
Precip. -- in
Pressure 30.37 in
Visibility 10.0 miles
Clouds Few 8500 ft
Scattered Clouds 11000 ft
Dew Point 32 °F
Humidity 44%
Rainfall 0.00 in
Snow Depth Not available.
7:12 AM 6:02 PM
Waxing Crescent, 24% visible
METAR KMLC 122253Z AUTO 04009KT 10SM FEW085 SCT110 13/M01 A3036 RMK AO2 SLP282 T01331006
Pressure 30.37 in
Visibility 10.0 miles
Clouds Few 8500 ft
Scattered Clouds 11000 ft
Dew Point 32 °F
Humidity 44%
Rainfall 0.00 in
Snow Depth Not available.
7:12 AM 6:02 PM
Waxing Crescent, 24% visible
METAR KMLC 122253Z AUTO 04009KT 10SM FEW085 SCT110 13/M01 A3036 RMK AO2 SLP282 T01331006

10-Day Weather Forecast

Almanac

Astronomy

Feb. 12, 2016 Rise Set
Actual Time
Civil Twilight
Nautical Twilight
Astronomical Twilight
Moon
Length of Visible Light
Length of Day
Tomorrow will be .
, % of the Moon is Illuminated

Today's Extremes

State Highs State Lows

Community

WunderPhotos

Upload Photos

1,892,436 photos uploaded!

WunderBlog® & News

Nearby

Air Quality

  Air Quality AQ Index Pollutant
Not available.

Snow Depth

Station Depth Elevation

Earthquake Activity

City Distance Mag. Time & Date
Minimum magnitude displayed is 2.5.

Coastal Water Temperatures

Place Temperature

Stations

Nearby Weather Stations

Station Location Temp. Windchill Dew Point Humidity Wind Precip. Elev Updated Type
                   

Watches & Warnings

There are currently no watches in effect.